Time;durP1;ratioP1;P1;durP2;ratioP2;P2;SDS_P1;SDS_P2;PMS_P1;PMS_P2;Temp;Humidity;BMP_temperature;BMP_pressure;BME280_temperature;BME280_humidity;BME280_pressure;Samples;Min_cycle;Max_cycle;Signal;HPM_P1;HPM_P2
2023/05/25 00:00:10;;;;;;;5.13;3.63;;;;;;;;;;5066456;28;20024;-61
2023/05/25 00:02:38;;;;;;;5.23;4.30;;;;;;;;;;5066507;28;20037;-61
2023/05/25 00:05:05;;;;;;;17.37;4.27;;;;;;;;;;5066733;28;20550;-61
2023/05/25 00:07:32;;;;;;;8.00;4.03;;;;;;;;;;5066156;28;20432;-61
2023/05/25 00:09:58;;;;;;;4.50;3.67;;;;;;;;;;5071365;28;20474;-61
2023/05/25 00:12:25;;;;;;;6.67;3.60;;;;;;;;;;5071747;28;20058;-61
2023/05/25 00:14:52;;;;;;;7.13;4.83;;;;;;;;;;5071525;28;20032;-61
2023/05/25 00:17:20;;;;;;;6.73;4.57;;;;;;;;;;5071824;28;20081;-61
2023/05/25 00:19:47;;;;;;;7.57;4.53;;;;;;;;;;5071447;28;20035;-61
2023/05/25 00:22:14;;;;;;;9.90;5.70;;;;;;;;;;5066735;28;20502;-61
2023/05/25 00:24:41;;;;;;;4.70;3.90;;;;;;;;;;5066130;28;20428;-61
2023/05/25 00:27:07;;;;;;;8.50;4.53;;;;;;;;;;5066389;28;20021;-61
2023/05/25 00:29:35;;;;;;;4.63;3.67;;;;;;;;;;5066286;28;20032;-61
2023/05/25 00:32:02;;;;;;;6.30;4.77;;;;;;;;;;5069975;28;20035;-62
2023/05/25 00:34:29;;;;;;;7.50;4.50;;;;;;;;;;5071666;28;20430;-61
2023/05/25 00:36:56;;;;;;;8.03;5.37;;;;;;;;;;5071544;28;20082;-61
2023/05/25 00:39:22;;;;;;;10.43;4.60;;;;;;;;;;5071500;28;20031;-61
2023/05/25 00:41:49;;;;;;;6.20;4.20;;;;;;;;;;5070996;28;20056;-61
2023/05/25 00:44:20;;;;;;;8.13;4.53;;;;;;;;;;5067275;28;20403;-60
2023/05/25 00:46:51;;;;;;;6.63;4.10;;;;;;;;;;5067185;28;20024;-61
2023/05/25 00:49:19;;;;;;;9.70;5.13;;;;;;;;;;5069397;28;20503;-60
2023/05/25 00:51:47;;;;;;;13.33;5.27;;;;;;;;;;5069468;28;20055;-61
2023/05/25 00:54:14;;;;;;;11.43;4.93;;;;;;;;;;5073098;28;20502;-61
2023/05/25 00:56:46;;;;;;;6.87;4.60;;;;;;;;;;5074620;28;20020;-61
2023/05/25 00:59:15;;;;;;;9.93;4.63;;;;;;;;;;5074801;28;20039;-60
2023/05/25 01:01:43;;;;;;;8.73;5.77;;;;;;;;;;5074785;28;20037;-61
2023/05/25 01:04:12;;;;;;;6.73;5.40;;;;;;;;;;5074661;28;20078;-62
2023/05/25 01:06:39;;;;;;;9.87;5.53;;;;;;;;;;5070467;28;20107;-61
2023/05/25 01:09:08;;;;;;;13.73;5.47;;;;;;;;;;5076825;28;20027;-61
2023/05/25 01:11:36;;;;;;;8.77;6.37;;;;;;;;;;5089162;28;20040;-61
2023/05/25 01:14:03;;;;;;;6.53;4.80;;;;;;;;;;5089588;28;20024;-61
2023/05/25 01:16:30;;;;;;;6.10;4.83;;;;;;;;;;5092660;28;20383;-61
2023/05/25 01:18:57;;;;;;;8.47;5.00;;;;;;;;;;5094912;28;20073;-61
2023/05/25 01:21:30;;;;;;;6.60;4.93;;;;;;;;;;5094789;28;20031;-61
2023/05/25 01:24:01;;;;;;;17.67;5.87;;;;;;;;;;5094566;28;20059;-61
2023/05/25 01:26:29;;;;;;;10.67;5.50;;;;;;;;;;5094095;28;20024;-61
2023/05/25 01:28:57;;;;;;;7.87;5.53;;;;;;;;;;5090655;28;20024;-61
2023/05/25 01:31:24;;;;;;;7.97;5.20;;;;;;;;;;5089344;28;20061;-61
2023/05/25 01:33:51;;;;;;;5.93;4.73;;;;;;;;;;5089159;28;20028;-61
2023/05/25 01:36:19;;;;;;;15.03;7.03;;;;;;;;;;5089160;28;20158;-61
2023/05/25 01:38:46;;;;;;;7.27;5.37;;;;;;;;;;5091799;28;20024;-61
2023/05/25 01:41:13;;;;;;;15.20;5.67;;;;;;;;;;5094127;28;20035;-61
2023/05/25 01:43:40;;;;;;;26.50;5.97;;;;;;;;;;5093932;28;20038;-61
2023/05/25 01:46:31;;;;;;;7.43;5.20;;;;;;;;;;5094523;28;20027;-61
2023/05/25 01:49:20;;;;;;;6.53;5.40;;;;;;;;;;5094272;28;20027;-61
2023/05/25 01:51:54;;;;;;;9.63;5.83;;;;;;;;;;5088875;28;20030;-61
2023/05/25 01:54:21;;;;;;;13.80;7.47;;;;;;;;;;5088749;28;20488;-61
2023/05/25 01:56:49;;;;;;;12.53;6.60;;;;;;;;;;5088555;28;20032;-61
2023/05/25 01:59:19;;;;;;;22.13;6.27;;;;;;;;;;5087984;28;20020;-60
2023/05/25 02:01:50;;;;;;;9.03;6.90;;;;;;;;;;5093042;28;20028;-61
2023/05/25 02:04:17;;;;;;;13.27;7.13;;;;;;;;;;5093765;28;20020;-61
2023/05/25 02:06:47;;;;;;;9.07;6.67;;;;;;;;;;5094013;28;20028;-61
2023/05/25 02:09:15;;;;;;;26.60;7.27;;;;;;;;;;5093796;28;20021;-62
2023/05/25 02:11:41;;;;;;;12.40;6.63;;;;;;;;;;5093851;28;20030;-61
2023/05/25 02:14:09;;;;;;;21.20;6.63;;;;;;;;;;5088850;28;20028;-62
2023/05/25 02:16:36;;;;;;;7.00;5.97;;;;;;;;;;5088779;28;20024;-60
2023/05/25 02:19:03;;;;;;;15.33;5.90;;;;;;;;;;5088419;28;20023;-61
2023/05/25 02:21:30;;;;;;;19.43;5.77;;;;;;;;;;5087938;28;20036;-61
2023/05/25 02:23:57;;;;;;;20.87;7.63;;;;;;;;;;5092191;28;20027;-61
2023/05/25 02:26:24;;;;;;;10.27;7.53;;;;;;;;;;5093513;28;20043;-60
2023/05/25 02:28:51;;;;;;;7.00;5.47;;;;;;;;;;5093397;28;20101;-60
2023/05/25 02:31:18;;;;;;;10.37;7.70;;;;;;;;;;5093225;28;20028;-60
2023/05/25 02:33:45;;;;;;;7.13;4.83;;;;;;;;;;5093479;28;20059;-61
2023/05/25 02:36:11;;;;;;;7.73;4.40;;;;;;;;;;5089267;28;20020;-60
2023/05/25 02:38:38;;;;;;;9.17;3.67;;;;;;;;;;5087970;28;20026;-60
2023/05/25 02:41:05;;;;;;;9.83;3.60;;;;;;;;;;5087964;28;20028;-61
2023/05/25 02:43:32;;;;;;;13.60;3.33;;;;;;;;;;5088121;28;20456;-61
2023/05/25 02:45:58;;;;;;;4.60;3.27;;;;;;;;;;5090989;28;20020;-60
2023/05/25 02:48:25;;;;;;;4.20;2.80;;;;;;;;;;5093054;28;20057;-60
2023/05/25 02:50:52;;;;;;;3.37;2.67;;;;;;;;;;5093232;28;20021;-60
2023/05/25 02:53:19;;;;;;;5.07;3.73;;;;;;;;;;5093077;28;20077;-61
2023/05/25 02:55:46;;;;;;;3.90;3.00;;;;;;;;;;5093018;28;20103;-61
2023/05/25 02:58:12;;;;;;;23.37;2.87;;;;;;;;;;5089230;28;20020;-61
2023/05/25 03:00:41;;;;;;;6.80;3.30;;;;;;;;;;5087813;28;20098;-60
2023/05/25 03:03:08;;;;;;;6.47;4.23;;;;;;;;;;5087489;28;20089;-61
2023/05/25 03:05:35;;;;;;;3.83;3.10;;;;;;;;;;5087592;28;20024;-60
2023/05/25 03:08:01;;;;;;;5.40;3.57;;;;;;;;;;5090286;28;20097;-60
2023/05/25 03:10:28;;;;;;;7.00;3.60;;;;;;;;;;5073648;28;20021;-61
2023/05/25 03:12:55;;;;;;;6.33;3.63;;;;;;;;;;5072503;28;20513;-61
2023/05/25 03:15:22;;;;;;;7.23;4.33;;;;;;;;;;5071966;28;20037;-61
2023/05/25 03:17:49;;;;;;;3.57;2.70;;;;;;;;;;5072540;28;20031;-61
2023/05/25 03:20:15;;;;;;;3.87;3.07;;;;;;;;;;5069491;28;20052;-61
2023/05/25 03:22:42;;;;;;;7.47;3.90;;;;;;;;;;5067245;28;20017;-61
2023/05/25 03:25:12;;;;;;;8.20;4.03;;;;;;;;;;5067089;28;20379;-61
2023/05/25 03:27:40;;;;;;;4.93;3.43;;;;;;;;;;5067213;28;20036;-61
2023/05/25 03:30:07;;;;;;;5.27;3.47;;;;;;;;;;5069187;28;20035;-60
2023/05/25 03:32:33;;;;;;;4.73;3.47;;;;;;;;;;5072039;28;20021;-61
2023/05/25 03:35:00;;;;;;;5.67;4.47;;;;;;;;;;5072305;28;20127;-60
2023/05/25 03:37:27;;;;;;;5.10;3.33;;;;;;;;;;5072167;28;20032;-60
2023/05/25 03:39:54;;;;;;;4.40;3.40;;;;;;;;;;5072135;28;20383;-60
2023/05/25 03:42:20;;;;;;;6.97;4.57;;;;;;;;;;5070001;28;20039;-61
2023/05/25 03:44:47;;;;;;;7.33;4.50;;;;;;;;;;5066933;28;20490;-61
2023/05/25 03:47:14;;;;;;;15.57;3.77;;;;;;;;;;5066891;28;20136;-60
2023/05/25 03:49:41;;;;;;;10.80;4.70;;;;;;;;;;5066840;28;20031;-60
2023/05/25 03:52:07;;;;;;;8.77;5.27;;;;;;;;;;5068100;28;20494;-60
2023/05/25 03:54:34;;;;;;;5.83;4.33;;;;;;;;;;5071947;28;20059;-60
2023/05/25 03:57:02;;;;;;;5.00;3.53;;;;;;;;;;5072071;28;20055;-60
2023/05/25 03:59:29;;;;;;;9.77;5.17;;;;;;;;;;5071954;28;20078;-60
2023/05/25 04:01:56;;;;;;;7.10;4.57;;;;;;;;;;5071980;28;20032;-61
2023/05/25 04:04:23;;;;;;;6.93;4.33;;;;;;;;;;5070324;28;20024;-60
2023/05/25 04:06:50;;;;;;;10.77;5.30;;;;;;;;;;5066695;28;20091;-60
2023/05/25 04:09:18;;;;;;;13.70;4.73;;;;;;;;;;5066784;28;20102;-60
2023/05/25 04:11:45;;;;;;;7.43;4.93;;;;;;;;;;5066638;28;20379;-60
2023/05/25 04:14:12;;;;;;;5.63;4.13;;;;;;;;;;5067138;28;20107;-60
2023/05/25 04:16:44;;;;;;;8.93;5.30;;;;;;;;;;5071912;28;20475;-60
2023/05/25 04:19:11;;;;;;;4.40;3.80;;;;;;;;;;5071816;28;20024;-60
2023/05/25 04:21:38;;;;;;;5.77;4.50;;;;;;;;;;5072165;28;20475;-60
2023/05/25 04:24:05;;;;;;;11.63;5.37;;;;;;;;;;5075648;28;20070;-60
2023/05/25 04:26:32;;;;;;;5.87;5.10;;;;;;;;;;5074677;28;20099;-61
2023/05/25 04:29:00;;;;;;;9.13;5.97;;;;;;;;;;5070285;28;20035;-61
2023/05/25 04:31:27;;;;;;;8.40;4.90;;;;;;;;;;5070280;28;20462;-60
2023/05/25 04:33:54;;;;;;;7.97;4.93;;;;;;;;;;5070666;28;20052;-60
2023/05/25 04:36:21;;;;;;;5.00;4.17;;;;;;;;;;5070294;28;20028;-61
2023/05/25 04:38:50;;;;;;;6.13;4.23;;;;;;;;;;5075015;28;20028;-61
2023/05/25 04:41:17;;;;;;;8.63;5.77;;;;;;;;;;5075250;28;20476;-61
2023/05/25 04:43:44;;;;;;;23.27;5.37;;;;;;;;;;5075110;28;20020;-61
2023/05/25 04:46:12;;;;;;;12.80;6.47;;;;;;;;;;5075282;28;20021;-60
2023/05/25 04:48:39;;;;;;;7.83;5.87;;;;;;;;;;5075049;28;20016;-60
2023/05/25 04:51:06;;;;;;;7.40;5.97;;;;;;;;;;5069895;28;20052;-60
2023/05/25 04:53:36;;;;;;;6.83;4.93;;;;;;;;;;5069851;28;20017;-60
2023/05/25 04:56:03;;;;;;;8.17;5.80;;;;;;;;;;5069736;28;20101;-61
2023/05/25 04:58:30;;;;;;;6.50;5.53;;;;;;;;;;5069784;28;20028;-60
2023/05/25 05:00:57;;;;;;;8.10;5.67;;;;;;;;;;5074522;28;20045;-61
2023/05/25 05:03:23;;;;;;;13.53;6.83;;;;;;;;;;5074982;28;20052;-60
2023/05/25 05:05:50;;;;;;;6.90;4.73;;;;;;;;;;5074638;28;20399;-60
2023/05/25 05:08:17;;;;;;;5.73;4.97;;;;;;;;;;5074889;28;20087;-62
2023/05/25 05:10:44;;;;;;;6.50;4.83;;;;;;;;;;5074617;28;20028;-61
2023/05/25 05:13:11;;;;;;;7.87;5.67;;;;;;;;;;5069228;28;20123;-60
2023/05/25 05:15:38;;;;;;;5.37;4.53;;;;;;;;;;5069575;28;20078;-60
2023/05/25 05:18:05;;;;;;;6.30;4.13;;;;;;;;;;5069456;28;20097;-61
2023/05/25 05:20:31;;;;;;;6.53;5.27;;;;;;;;;;5069296;28;20036;-61
2023/05/25 05:22:58;;;;;;;4.23;3.67;;;;;;;;;;5073592;28;20021;-61
2023/05/25 05:25:25;;;;;;;9.77;4.90;;;;;;;;;;5074479;28;20024;-61
2023/05/25 05:27:52;;;;;;;7.37;4.67;;;;;;;;;;5074351;28;20036;-61
2023/05/25 05:30:18;;;;;;;10.57;5.73;;;;;;;;;;5074159;28;20039;-60
2023/05/25 05:32:45;;;;;;;9.07;5.23;;;;;;;;;;5073695;28;20029;-61
2023/05/25 05:35:12;;;;;;;5.87;4.37;;;;;;;;;;5069330;28;20028;-60
2023/05/25 05:37:38;;;;;;;6.83;3.57;;;;;;;;;;5069022;28;20029;-61
2023/05/25 05:40:06;;;;;;;6.33;3.80;;;;;;;;;;5068501;28;20012;-61
2023/05/25 05:42:33;;;;;;;6.23;4.13;;;;;;;;;;5068575;28;20441;-60
2023/05/25 05:45:00;;;;;;;5.60;4.27;;;;;;;;;;5072622;28;20037;-61
2023/05/25 05:47:26;;;;;;;5.67;4.40;;;;;;;;;;5073717;28;20024;-61
2023/05/25 05:49:53;;;;;;;10.90;3.97;;;;;;;;;;5074039;28;20028;-61
2023/05/25 05:52:20;;;;;;;3.67;2.93;;;;;;;;;;5073835;28;20096;-62
2023/05/25 05:54:46;;;;;;;4.67;4.00;;;;;;;;;;5074071;28;20024;-61
2023/05/25 05:57:13;;;;;;;4.47;3.27;;;;;;;;;;5069587;28;20025;-61
2023/05/25 05:59:40;;;;;;;4.57;3.47;;;;;;;;;;5068676;28;20104;-61
2023/05/25 06:02:07;;;;;;;4.67;3.77;;;;;;;;;;5068364;28;20032;-61
2023/05/25 06:04:34;;;;;;;6.33;4.37;;;;;;;;;;5068009;28;20027;-61
2023/05/25 06:07:01;;;;;;;6.00;4.47;;;;;;;;;;5071560;28;20074;-61
2023/05/25 06:09:27;;;;;;;6.10;4.47;;;;;;;;;;5073664;28;20096;-61
2023/05/25 06:11:54;;;;;;;5.33;4.20;;;;;;;;;;5073555;28;20379;-61
2023/05/25 06:14:21;;;;;;;5.33;4.47;;;;;;;;;;5073320;28;20070;-61
2023/05/25 06:16:48;;;;;;;7.17;4.47;;;;;;;;;;5073580;28;20074;-61
2023/05/25 06:19:14;;;;;;;7.17;5.00;;;;;;;;;;5070077;28;20376;-61
2023/05/25 06:21:41;;;;;;;6.50;5.00;;;;;;;;;;5049829;28;20387;-61
2023/05/25 06:24:08;;;;;;;6.43;5.13;;;;;;;;;;5067715;28;20031;-61
2023/05/25 06:26:35;;;;;;;6.23;4.27;;;;;;;;;;5068051;28;20067;-61
2023/05/25 06:29:01;;;;;;;5.43;4.13;;;;;;;;;;5070495;28;20021;-61
2023/05/25 06:31:28;;;;;;;4.13;3.43;;;;;;;;;;5073061;28;20102;-61
2023/05/25 06:33:55;;;;;;;7.17;4.07;;;;;;;;;;5073377;28;20032;-61
2023/05/25 06:36:22;;;;;;;6.47;4.33;;;;;;;;;;5073036;28;20426;-61
2023/05/25 06:38:48;;;;;;;7.30;4.33;;;;;;;;;;5072812;28;20021;-61
2023/05/25 06:41:15;;;;;;;7.27;4.27;;;;;;;;;;5070266;28;20111;-61
2023/05/25 06:43:42;;;;;;;8.43;4.97;;;;;;;;;;5067713;28;20090;-61
2023/05/25 06:46:09;;;;;;;5.00;3.30;;;;;;;;;;5067119;28;20563;-61
2023/05/25 06:48:36;;;;;;;4.23;3.50;;;;;;;;;;5067433;28;20027;-61
2023/05/25 06:51:03;;;;;;;6.80;4.70;;;;;;;;;;5069475;28;20451;-61
2023/05/25 06:53:31;;;;;;;5.57;3.90;;;;;;;;;;5072766;28;20418;-61
2023/05/25 06:55:58;;;;;;;10.73;3.67;;;;;;;;;;5072402;28;20078;-61
2023/05/25 06:58:24;;;;;;;6.33;4.27;;;;;;;;;;5072549;28;20090;-61
2023/05/25 07:00:51;;;;;;;4.83;4.10;;;;;;;;;;5072561;28;20090;-61
2023/05/25 07:03:18;;;;;;;5.43;3.60;;;;;;;;;;5070473;28;20020;-61
2023/05/25 07:05:44;;;;;;;6.37;4.33;;;;;;;;;;5066948;28;20021;-61
2023/05/25 07:08:11;;;;;;;7.13;3.47;;;;;;;;;;5067372;28;20028;-61
2023/05/25 07:10:38;;;;;;;5.27;3.80;;;;;;;;;;5080197;28;20056;-61
2023/05/25 07:13:05;;;;;;;5.27;3.93;;;;;;;;;;5087680;28;20032;-61
2023/05/25 07:15:31;;;;;;;6.30;3.73;;;;;;;;;;5092562;28;20107;-61
2023/05/25 07:17:58;;;;;;;6.37;4.33;;;;;;;;;;5092642;28;20024;-61
2023/05/25 07:20:26;;;;;;;4.33;3.13;;;;;;;;;;5092619;28;20017;-61
2023/05/25 07:22:52;;;;;;;4.50;3.50;;;;;;;;;;5092431;28;20036;-61
2023/05/25 07:25:20;;;;;;;4.70;3.77;;;;;;;;;;5091351;28;20036;-61
2023/05/25 07:27:53;;;;;;;6.57;4.43;;;;;;;;;;5086913;28;20512;-61
2023/05/25 07:30:20;;;;;;;5.10;4.10;;;;;;;;;;5087008;28;20042;-62
2023/05/25 07:32:47;;;;;;;5.73;4.03;;;;;;;;;;5087297;28;20441;-61
2023/05/25 07:35:14;;;;;;;11.20;4.73;;;;;;;;;;5087803;28;20027;-61
2023/05/25 07:37:41;;;;;;;6.80;4.77;;;;;;;;;;5092386;28;20020;-61
2023/05/25 07:40:08;;;;;;;6.30;4.17;;;;;;;;;;5092259;28;20020;-61
2023/05/25 07:42:34;;;;;;;4.23;3.00;;;;;;;;;;5092377;28;20062;-61
2023/05/25 07:45:02;;;;;;;8.07;4.60;;;;;;;;;;5091980;28;20055;-61
2023/05/25 07:47:28;;;;;;;4.30;3.60;;;;;;;;;;5091455;28;20020;-62
2023/05/25 07:49:55;;;;;;;4.43;3.73;;;;;;;;;;5086969;28;20032;-61
2023/05/25 07:52:22;;;;;;;4.03;3.10;;;;;;;;;;5087083;28;20024;-61
2023/05/25 07:54:49;;;;;;;8.07;4.97;;;;;;;;;;5087013;28;20035;-61
2023/05/25 07:57:15;;;;;;;6.73;4.03;;;;;;;;;;5088911;28;20024;-61
2023/05/25 07:59:43;;;;;;;6.27;4.93;;;;;;;;;;5096431;28;20028;-61
2023/05/25 08:02:10;;;;;;;7.13;4.33;;;;;;;;;;5095669;28;20425;-61
2023/05/25 08:04:37;;;;;;;7.47;3.77;;;;;;;;;;5096223;28;20494;-62
2023/05/25 08:07:04;;;;;;;5.43;3.63;;;;;;;;;;5096273;28;20020;-61
2023/05/25 08:09:30;;;;;;;6.70;4.67;;;;;;;;;;5095943;28;20371;-61
2023/05/25 08:11:57;;;;;;;6.77;3.57;;;;;;;;;;5090767;28;20039;-61
2023/05/25 08:14:24;;;;;;;5.23;4.27;;;;;;;;;;5090447;28;20532;-61
2023/05/25 08:16:51;;;;;;;13.27;4.50;;;;;;;;;;5090831;28;20446;-61
2023/05/25 08:19:18;;;;;;;4.30;3.17;;;;;;;;;;5090407;28;20055;-61
2023/05/25 08:21:45;;;;;;;6.93;5.03;;;;;;;;;;5095480;28;20089;-62
2023/05/25 08:24:11;;;;;;;3.70;3.10;;;;;;;;;;5095928;28;20024;-61
2023/05/25 08:26:39;;;;;;;6.47;4.83;;;;;;;;;;5095870;28;20212;-61
2023/05/25 08:29:07;;;;;;;7.17;4.57;;;;;;;;;;5095917;28;20035;-61
2023/05/25 08:31:34;;;;;;;6.00;4.00;;;;;;;;;;5095578;28;20081;-61
2023/05/25 08:34:01;;;;;;;7.53;4.80;;;;;;;;;;5090609;28;20044;-61
2023/05/25 08:36:28;;;;;;;7.27;5.10;;;;;;;;;;5089932;28;20086;-62
2023/05/25 08:38:55;;;;;;;4.10;3.70;;;;;;;;;;5090246;28;20103;-61
2023/05/25 08:41:22;;;;;;;5.30;3.97;;;;;;;;;;5090156;28;20475;-61
2023/05/25 08:43:49;;;;;;;6.23;4.40;;;;;;;;;;5094397;28;20024;-61
2023/05/25 08:46:22;;;;;;;8.30;5.43;;;;;;;;;;5095507;28;20057;-61
2023/05/25 08:48:50;;;;;;;5.90;4.90;;;;;;;;;;5095415;28;20020;-61
2023/05/25 08:51:17;;;;;;;6.03;4.87;;;;;;;;;;5095048;28;20028;-61
2023/05/25 08:53:44;;;;;;;7.30;5.13;;;;;;;;;;5095268;28;20031;-61
2023/05/25 08:56:19;;;;;;;7.13;5.50;;;;;;;;;;5090512;28;20024;-61
2023/05/25 08:58:51;;;;;;;10.05;6.72;;;;;;;;;;5089870;28;20024;-62
2023/05/25 09:01:19;;;;;;;5.90;4.90;;;;;;;;;;5089968;28;20036;-61
2023/05/25 09:03:48;;;;;;;4.73;3.97;;;;;;;;;;5089554;28;20029;-62
2023/05/25 09:06:16;;;;;;;7.83;5.97;;;;;;;;;;5094024;28;20089;-61
2023/05/25 09:08:44;;;;;;;9.77;6.67;;;;;;;;;;5094891;28;20047;-61
2023/05/25 09:11:11;;;;;;;7.67;5.87;;;;;;;;;;5094912;28;20027;-61
2023/05/25 09:13:38;;;;;;;8.53;5.73;;;;;;;;;;5095019;28;20039;-61
2023/05/25 09:16:05;;;;;;;5.30;4.60;;;;;;;;;;5095108;28;20526;-61
2023/05/25 09:18:32;;;;;;;10.63;6.80;;;;;;;;;;5090118;28;20085;-61
2023/05/25 09:20:59;;;;;;;6.10;4.67;;;;;;;;;;5089132;28;20032;-61
2023/05/25 09:23:25;;;;;;;11.17;6.17;;;;;;;;;;5089369;28;20470;-61
2023/05/25 09:25:53;;;;;;;13.53;6.80;;;;;;;;;;5089438;28;20062;-61
2023/05/25 09:28:20;;;;;;;8.00;5.77;;;;;;;;;;5093357;28;20100;-61
2023/05/25 09:30:47;;;;;;;10.77;7.17;;;;;;;;;;5094561;28;20020;-61
2023/05/25 09:33:18;;;;;;;6.67;4.13;;;;;;;;;;5094473;28;20031;-61
2023/05/25 09:35:45;;;;;;;7.90;5.50;;;;;;;;;;5094184;28;20028;-61
2023/05/25 09:38:16;;;;;;;6.77;5.40;;;;;;;;;;5094471;28;20026;-61
2023/05/25 09:40:43;;;;;;;7.30;4.60;;;;;;;;;;5090161;28;20111;-61
2023/05/25 09:43:09;;;;;;;10.10;5.37;;;;;;;;;;5088955;28;20382;-61
2023/05/25 09:45:37;;;;;;;4.77;4.17;;;;;;;;;;5089182;28;20031;-61
2023/05/25 09:48:06;;;;;;;5.17;3.67;;;;;;;;;;5089003;28;20119;-61
2023/05/25 09:50:33;;;;;;;5.57;4.43;;;;;;;;;;5092183;28;20024;-61
2023/05/25 09:53:00;;;;;;;6.33;4.47;;;;;;;;;;5093828;28;20021;-61
2023/05/25 09:55:30;;;;;;;7.73;5.40;;;;;;;;;;5094254;28;20040;-61
2023/05/25 09:57:57;;;;;;;7.13;4.00;;;;;;;;;;5094081;28;20020;-60
2023/05/25 10:00:24;;;;;;;6.70;5.27;;;;;;;;;;5094022;28;20078;-61
2023/05/25 10:02:52;;;;;;;11.70;6.43;;;;;;;;;;5090645;28;20109;-62
2023/05/25 10:05:18;;;;;;;9.93;6.13;;;;;;;;;;5088769;28;20032;-61
2023/05/25 10:07:46;;;;;;;6.73;5.30;;;;;;;;;;5088332;28;20024;-61
2023/05/25 10:10:14;;;;;;;30.33;6.53;;;;;;;;;;5088722;28;20080;-61
2023/05/25 10:12:43;;;;;;;6.97;5.60;;;;;;;;;;5091013;28;20028;-62
2023/05/25 10:15:12;;;;;;;11.50;5.93;;;;;;;;;;5093636;28;20020;-61
2023/05/25 10:17:59;;;;;;;6.53;4.63;;;;;;;;;;5093819;28;20024;-61
2023/05/25 10:20:26;;;;;;;11.97;5.57;;;;;;;;;;5092590;28;20020;-61
2023/05/25 10:23:08;;;;;;;7.17;5.37;;;;;;;;;;5093704;28;20032;-61
2023/05/25 10:25:55;;;;;;;5.13;4.40;;;;;;;;;;5089473;28;20024;-61
2023/05/25 10:28:27;;;;;;;5.23;4.13;;;;;;;;;;5087654;28;20475;-61
2023/05/25 10:30:54;;;;;;;5.37;4.63;;;;;;;;;;5088003;28;20710;-61
2023/05/25 10:33:21;;;;;;;5.50;4.23;;;;;;;;;;5088097;28;20024;-61
2023/05/25 10:35:49;;;;;;;8.93;5.10;;;;;;;;;;5092135;28;20068;-61
2023/05/25 10:38:17;;;;;;;5.67;4.67;;;;;;;;;;5093462;28;20031;-61
2023/05/25 10:40:46;;;;;;;11.17;4.57;;;;;;;;;;5093195;28;20043;-61
2023/05/25 10:43:14;;;;;;;7.70;4.73;;;;;;;;;;5093386;28;20024;-61
2023/05/25 10:45:41;;;;;;;7.50;4.20;;;;;;;;;;5092748;28;20020;-61
2023/05/25 10:48:07;;;;;;;9.07;5.73;;;;;;;;;;5092939;28;20028;-61
2023/05/25 10:50:37;;;;;;;7.13;5.13;;;;;;;;;;5088969;28;20050;-62
2023/05/25 10:53:08;;;;;;;5.13;4.27;;;;;;;;;;5087842;28;20023;-61
2023/05/25 10:55:53;;;;;;;7.30;5.23;;;;;;;;;;5087544;28;20016;-61
2023/05/25 10:58:20;;;;;;;8.68;4.90;;;;;;;;;;5087231;28;20023;-61
2023/05/25 11:01:00;;;;;;;7.07;5.37;;;;;;;;;;5091677;28;20020;-61
2023/05/25 11:03:45;;;;;;;9.67;4.63;;;;;;;;;;5092739;28;20103;-61
2023/05/25 11:06:14;;;;;;;6.78;4.00;;;;;;;;;;5092549;28;20065;-61
2023/05/25 11:09:09;;;;;;;3.50;3.07;;;;;;;;;;5092528;28;20398;-61
2023/05/25 11:11:36;;;;;;;;;;;;;;;;;;5075839;28;20040;-61
2023/05/25 11:14:02;;;;;;;4.80;3.63;;;;;;;;;;5088929;28;19911;-61
2023/05/25 11:16:34;;;;;;;8.40;5.87;;;;;;;;;;5087437;28;20107;-61
2023/05/25 11:19:02;;;;;;;6.70;5.00;;;;;;;;;;5086754;28;20130;-61
2023/05/25 11:21:31;;;;;;;4.67;3.90;;;;;;;;;;5087294;28;20032;-61
2023/05/25 11:24:03;;;;;;;5.57;4.57;;;;;;;;;;5090474;28;20028;-61
2023/05/25 11:26:30;;;;;;;7.57;5.30;;;;;;;;;;5092702;28;20409;-61
2023/05/25 11:28:58;;;;;;;5.43;4.13;;;;;;;;;;5092686;28;20074;-60
2023/05/25 11:31:29;;;;;;;5.47;4.57;;;;;;;;;;5091751;28;20024;-61
2023/05/25 11:33:57;;;;;;;5.90;5.10;;;;;;;;;;5092164;28;20039;-61
2023/05/25 11:36:25;;;;;;;5.37;3.97;;;;;;;;;;5090673;28;20027;-61
2023/05/25 11:38:53;;;;;;;4.50;3.20;;;;;;;;;;5087051;28;20824;-61
2023/05/25 11:41:22;;;;;;;7.97;4.33;;;;;;;;;;5086918;28;20028;-60
2023/05/25 11:43:52;;;;;;;6.27;5.13;;;;;;;;;;5087033;28;20028;-61
2023/05/25 11:46:22;;;;;;;4.93;3.63;;;;;;;;;;5088010;28;20078;-61
2023/05/25 11:48:52;;;;;;;6.67;5.23;;;;;;;;;;5092505;28;20020;-60
2023/05/25 11:51:26;;;;;;;5.67;4.20;;;;;;;;;;5092760;28;20059;-60
2023/05/25 11:53:53;;;;;;;4.73;4.07;;;;;;;;;;5092289;28;20081;-60
2023/05/25 11:56:21;;;;;;;7.97;5.37;;;;;;;;;;5092436;28;20402;-61
2023/05/25 11:58:49;;;;;;;5.73;5.13;;;;;;;;;;5092188;28;20024;-61
2023/05/25 12:01:19;;;;;;;5.83;4.40;;;;;;;;;;5092237;28;20032;-61
2023/05/25 12:03:47;;;;;;;6.67;5.40;;;;;;;;;;5092426;28;20024;-60
2023/05/25 12:06:35;;;;;;;5.27;3.67;;;;;;;;;;5092199;28;20507;-60
2023/05/25 12:09:05;;;;;;;4.87;4.10;;;;;;;;;;5092231;28;20031;-61
2023/05/25 12:11:33;;;;;;;8.43;5.00;;;;;;;;;;5093159;28;20043;-61
2023/05/25 12:14:01;;;;;;;4.97;3.83;;;;;;;;;;5092730;28;20035;-60
2023/05/25 12:16:28;;;;;;;9.63;5.67;;;;;;;;;;5092244;28;20012;-60
2023/05/25 12:18:55;;;;;;;7.53;4.93;;;;;;;;;;5089446;28;20095;-60
2023/05/25 12:37:00;;;;;;;7.37;4.87;;;;;;;;;;5088116;23;20479;-62
2023/05/25 12:39:29;;;;;;;7.33;5.23;;;;;;;;;;5051069;28;20364;-63
2023/05/25 12:41:57;;;;;;;3.77;3.13;;;;;;;;;;5051692;28;20082;-61
2023/05/25 12:44:26;;;;;;;5.70;3.37;;;;;;;;;;5055316;28;20033;-61
2023/05/25 12:46:53;;;;;;;11.90;6.37;;;;;;;;;;5053746;28;20048;-61
2023/05/25 12:49:24;;;;;;;8.33;5.10;;;;;;;;;;5049720;28;20159;-61
2023/05/25 12:51:50;;;;;;;6.87;5.20;;;;;;;;;;5048753;28;20082;-61
2023/05/25 12:54:32;;;;;;;10.93;5.87;;;;;;;;;;5049317;28;20036;-61
2023/05/25 12:57:01;;;;;;;6.73;5.37;;;;;;;;;;5050205;28;20028;-61
2023/05/25 12:59:29;;;;;;;6.53;4.50;;;;;;;;;;5055021;28;20021;-61
2023/05/25 13:01:56;;;;;;;6.00;5.23;;;;;;;;;;5055033;28;20067;-61
2023/05/25 13:04:22;;;;;;;8.63;6.20;;;;;;;;;;5054763;28;20033;-61
2023/05/25 13:06:49;;;;;;;11.10;5.00;;;;;;;;;;5054496;28;20375;-61
2023/05/25 13:09:16;;;;;;;10.37;6.70;;;;;;;;;;5053873;28;20027;-61
2023/05/25 13:11:43;;;;;;;10.13;7.50;;;;;;;;;;5049487;28;20052;-61
2023/05/25 13:14:10;;;;;;;6.73;4.80;;;;;;;;;;5049406;28;20035;-61
2023/05/25 13:16:37;;;;;;;8.97;6.63;;;;;;;;;;5049528;28;20048;-61
2023/05/25 13:19:03;;;;;;;12.90;6.57;;;;;;;;;;5049490;28;20074;-61
2023/05/25 13:21:31;;;;;;;5.83;4.77;;;;;;;;;;5054512;28;20103;-62
2023/05/25 13:23:58;;;;;;;6.57;5.43;;;;;;;;;;5054199;28;20033;-61
2023/05/25 13:26:25;;;;;;;9.73;7.40;;;;;;;;;;5054300;28;20029;-61
2023/05/25 13:28:51;;;;;;;11.77;6.97;;;;;;;;;;5054646;28;20434;-61
2023/05/25 13:31:21;;;;;;;7.77;6.00;;;;;;;;;;5054202;28;20013;-61
2023/05/25 13:33:47;;;;;;;10.50;6.83;;;;;;;;;;5048979;28;20017;-61
2023/05/25 13:36:14;;;;;;;7.73;6.60;;;;;;;;;;5049079;28;20021;-61
2023/05/25 13:38:41;;;;;;;8.60;7.00;;;;;;;;;;5049006;28;20074;-61
2023/05/25 13:41:08;;;;;;;5.60;5.00;;;;;;;;;;5048450;28;20063;-61
2023/05/25 13:43:35;;;;;;;6.57;4.97;;;;;;;;;;5053682;28;20062;-61
2023/05/25 13:46:02;;;;;;;7.37;5.67;;;;;;;;;;5054071;28;20020;-61
2023/05/25 13:48:28;;;;;;;7.27;6.17;;;;;;;;;;5054127;28;20021;-61
2023/05/25 13:50:55;;;;;;;6.30;5.23;;;;;;;;;;5054103;28;20096;-62
2023/05/25 13:53:22;;;;;;;9.17;6.73;;;;;;;;;;5053944;28;20487;-61
2023/05/25 13:55:49;;;;;;;12.87;6.70;;;;;;;;;;5048077;28;20382;-61
2023/05/25 13:58:16;;;;;;;23.90;6.60;;;;;;;;;;5048629;28;20122;-62
2023/05/25 14:00:43;;;;;;;8.97;5.90;;;;;;;;;;5048230;28;20058;-62
2023/05/25 14:03:09;;;;;;;7.87;5.90;;;;;;;;;;5048498;28;20025;-61
2023/05/25 14:05:36;;;;;;;7.47;6.47;;;;;;;;;;5052505;28;20355;-61
2023/05/25 14:08:04;;;;;;;6.27;5.00;;;;;;;;;;5051663;28;20094;-62
2023/05/25 14:10:31;;;;;;;10.57;8.17;;;;;;;;;;5053399;28;20040;-61
2023/05/25 14:12:58;;;;;;;6.37;5.20;;;;;;;;;;5053645;28;20379;-62
2023/05/25 14:15:25;;;;;;;9.43;6.73;;;;;;;;;;5053618;28;20027;-61
2023/05/25 14:17:52;;;;;;;7.53;5.77;;;;;;;;;;5048682;28;20036;-61
2023/05/25 14:20:24;;;;;;;6.43;5.67;;;;;;;;;;5047977;28;20506;-61
2023/05/25 14:22:55;;;;;;;7.67;6.17;;;;;;;;;;5048020;28;20788;-62
2023/05/25 14:25:21;;;;;;;8.87;6.07;;;;;;;;;;5047865;28;20514;-61
2023/05/25 14:27:48;;;;;;;8.97;6.23;;;;;;;;;;5051823;28;20033;-62
2023/05/25 14:30:15;;;;;;;7.90;5.97;;;;;;;;;;5052602;28;20025;-62
2023/05/25 14:32:42;;;;;;;8.87;6.87;;;;;;;;;;5053171;28;20017;-61
2023/05/25 14:35:09;;;;;;;7.13;5.27;;;;;;;;;;5052978;28;20029;-61
2023/05/25 14:37:35;;;;;;;7.57;5.53;;;;;;;;;;5051817;28;20025;-61
2023/05/25 14:40:02;;;;;;;9.53;6.70;;;;;;;;;;5048540;28;20516;-62
2023/05/25 14:42:29;;;;;;;11.17;6.30;;;;;;;;;;5047542;28;20112;-61
2023/05/25 14:44:56;;;;;;;7.73;5.53;;;;;;;;;;5047236;28;20021;-62
2023/05/25 14:47:23;;;;;;;8.93;6.60;;;;;;;;;;5047476;28;20035;-61
2023/05/25 14:49:49;;;;;;;8.47;6.20;;;;;;;;;;5050623;28;20024;-62
2023/05/25 14:52:16;;;;;;;9.67;6.20;;;;;;;;;;5052723;28;20021;-62
2023/05/25 14:54:43;;;;;;;7.47;5.33;;;;;;;;;;5052658;28;20056;-62
2023/05/25 14:57:15;;;;;;;7.70;5.90;;;;;;;;;;5052719;28;20087;-62
2023/05/25 14:59:42;;;;;;;7.10;5.53;;;;;;;;;;5052712;28;20098;-62